Time;durP1;ratioP1;P1;durP2;ratioP2;P2;SDS_P1;SDS_P2;PMS_P1;PMS_P2;Temp;Humidity;BMP_temperature;BMP_pressure;BME280_temperature;BME280_humidity;BME280_pressure;Samples;Min_cycle;Max_cycle;Signal;HPM_P1;HPM_P2
2023/03/26 00:01:35;;;;;;;5.95;0.43;;;7.70;99.90;;;;;;5068151;28;20094;-87
2023/03/26 00:04:01;;;;;;;2.97;1.88;;;7.60;99.90;;;;;;5069399;28;20067;-88
2023/03/26 00:06:30;;;;;;;0.35;0.35;;;7.60;1.00;;;;;;5050834;28;20045;-88
2023/03/26 00:08:57;;;;;;;3.10;1.75;;;7.50;17.40;;;;;;5049245;28;20041;-88
2023/03/26 00:11:26;;;;;;;7.22;0.43;;;7.40;99.90;;;;;;5046971;28;20041;-88
2023/03/26 00:13:56;;;;;;;0.00;0.00;;;7.40;99.90;;;;;;5048256;28;20060;-88
2023/03/26 00:16:24;;;;;;;0.60;0.38;;;7.40;95.60;;;;;;5049691;28;20059;-88
2023/03/26 00:18:50;;;;;;;5.47;0.90;;;8.30;1.00;;;;;;5049879;28;20048;-88
2023/03/26 00:21:26;;;;;;;0.32;0.32;;;7.40;1.00;;;;;;5050056;28;20513;-88
2023/03/26 00:23:53;;;;;;;7.57;0.95;;;7.30;27.50;;;;;;5048615;28;20049;-88
2023/03/26 00:26:18;;;;;;;0.20;0.20;;;7.30;99.90;;;;;;5048624;28;20495;-88
2023/03/26 00:28:44;;;;;;;0.52;0.52;;;7.20;99.90;;;;;;5048926;28;20164;-87
2023/03/26 00:31:12;;;;;;;0.30;0.30;;;7.10;99.90;;;;;;5057443;28;20043;-88
2023/03/26 00:33:40;;;;;;;0.08;0.08;;;7.10;99.90;;;;;;5068562;28;20067;-89
2023/03/26 00:36:09;;;;;;;1.25;0.63;;;7.00;99.90;;;;;;5066657;28;20041;-88
2023/03/26 00:38:37;;;;;;;0.22;0.22;;;7.00;99.90;;;;;;5067041;28;20528;-89
2023/03/26 00:41:05;;;;;;;0.00;0.00;;;7.40;99.90;;;;;;5067040;28;20110;-88
2023/03/26 00:43:33;;;;;;;0.00;0.00;;;7.10;99.90;;;;;;5068459;28;20143;-89
2023/03/26 00:46:01;;;;;;;0.75;0.75;;;7.10;99.90;;;;;;5069340;28;20048;-88
2023/03/26 00:48:28;;;;;;;0.00;0.00;;;7.10;99.90;;;;;;5069209;28;20421;-89
2023/03/26 00:50:55;;;;;;;0.88;0.32;;;7.20;99.90;;;;;;5067411;28;20049;-89
2023/03/26 00:53:21;;;;;;;0.00;0.00;;;7.30;99.90;;;;;;5069209;28;20127;-89
2023/03/26 00:55:47;;;;;;;0.45;0.45;;;7.30;99.90;;;;;;5067511;28;20087;-88
2023/03/26 00:58:13;;;;;;;0.00;0.00;;;7.30;99.90;;;;;;5067537;28;20072;-89
2023/03/26 01:00:47;;;;;;;0.00;0.00;;;7.30;99.90;;;;;;5067013;28;20049;-88
2023/03/26 01:03:14;;;;;;;0.10;0.10;;;7.40;99.90;;;;;;5053132;28;20068;-89
2023/03/26 01:05:51;;;;;;;1.08;0.25;;;7.40;99.90;;;;;;5069194;28;20444;-88
2023/03/26 01:08:40;;;;;;;5.72;2.08;;;7.40;43.00;;;;;;5069656;28;20044;-88
2023/03/26 01:11:26;;;;;;;0.20;0.20;;;7.40;1.00;;;;;;5060584;28;20413;-88
2023/03/26 01:14:08;;;;;;;0.52;0.52;;;7.40;1.00;;;;;;5047895;28;20467;-89
2023/03/26 01:16:44;;;;;;;0.00;0.00;;;7.30;1.00;;;;;;5046390;28;20123;-88
2023/03/26 01:19:36;;;;;;;0.00;0.00;;;7.30;1.00;;;;;;5046959;28;20052;-88
2023/03/26 01:22:04;;;;;;;0.65;0.60;;;7.30;1.00;;;;;;5048314;28;20541;-88
2023/03/26 01:24:30;;;;;;;0.43;0.43;;;7.20;1.00;;;;;;5047830;28;20543;-88
2023/03/26 01:27:16;;;;;;;0.30;0.20;;;7.20;99.90;;;;;;5047963;28;20083;-89
2023/03/26 01:29:45;;;;;;;0.00;0.00;;;7.10;1.00;;;;;;5042039;28;20064;-88
2023/03/26 01:32:20;;;;;;;12.85;1.27;;;7.00;1.00;;;;;;5063491;28;20048;-88
2023/03/26 01:35:05;;;;;;;0.10;0.10;;;7.00;1.00;;;;;;5067679;28;20057;-89
2023/03/26 01:37:57;;;;;;;5.75;1.08;;;6.90;64.80;;;;;;5071115;28;20056;-89
2023/03/26 01:40:41;;;;;;;0.00;0.00;;;6.90;99.90;;;;;;5071710;28;20091;-89
2023/03/26 01:43:31;;;;;;;0.20;0.20;;;6.90;99.90;;;;;;5072154;28;20045;-89
2023/03/26 01:46:00;;;;;;;0.10;0.10;;;6.90;99.90;;;;;;5070432;28;20052;-89
2023/03/26 01:48:32;;;;;;;0.00;0.00;;;6.80;99.90;;;;;;5060331;28;20099;-88
2023/03/26 01:50:58;;;;;;;0.55;0.55;;;6.80;99.90;;;;;;5055850;28;20036;-88
2023/03/26 01:53:24;;;;;;;0.25;0.25;;;6.80;99.90;;;;;;5070130;28;20053;-88
2023/03/26 01:56:14;;;;;;;0.00;0.00;;;6.20;99.90;;;;;;5070748;28;20552;-88
2023/03/26 01:59:05;;;;;;;4.40;1.08;;;6.80;99.90;;;;;;5057572;28;20053;-88
2023/03/26 02:01:44;;;;;;;0.10;0.10;;;6.70;99.90;;;;;;5050795;28;20706;-88
2023/03/26 02:04:19;;;;;;;0.00;0.00;;;7.60;99.90;;;;;;5051246;28;20410;-88
2023/03/26 02:06:52;;;;;;;2.75;1.77;;;6.70;99.90;;;;;;5051607;28;20056;-88
2023/03/26 02:09:23;;;;;;;0.40;0.40;;;6.60;99.90;;;;;;5052002;28;20063;-88
2023/03/26 02:11:50;;;;;;;0.28;0.25;;;6.60;99.90;;;;;;5061639;28;20080;-88
2023/03/26 02:14:16;;;;;;;0.17;0.10;;;6.50;99.90;;;;;;5052970;28;20048;-88
2023/03/26 02:16:45;;;;;;;4.90;1.27;;;6.30;99.90;;;;;;5070997;28;20045;-88
2023/03/26 02:19:14;;;;;;;1.10;1.00;;;6.30;99.90;;;;;;5071243;28;20049;-89
2023/03/26 02:21:40;;;;;;;0.00;0.00;;;6.20;99.90;;;;;;5070871;28;20095;-88
2023/03/26 02:24:06;;;;;;;0.20;0.20;;;6.10;99.90;;;;;;5069695;28;20098;-89
2023/03/26 02:26:34;;;;;;;4.95;1.42;;;6.00;99.90;;;;;;5071003;28;20040;-88
2023/03/26 02:29:00;;;;;;;1.40;1.33;;;6.00;99.90;;;;;;5068709;28;20072;-88
2023/03/26 02:31:26;;;;;;;0.30;0.30;;;5.90;99.90;;;;;;5058967;28;20045;-88
2023/03/26 02:33:54;;;;;;;0.68;0.45;;;5.90;99.90;;;;;;5053638;28;20114;-88
2023/03/26 02:36:23;;;;;;;0.00;0.00;;;5.90;99.90;;;;;;5069566;28;20056;-88
2023/03/26 02:38:49;;;;;;;0.88;0.65;;;5.80;99.90;;;;;;5072061;28;20049;-89
2023/03/26 02:41:15;;;;;;;0.20;0.15;;;5.30;99.90;;;;;;5070071;28;20052;-89
2023/03/26 02:43:41;;;;;;;0.00;0.00;;;5.80;99.90;;;;;;5069502;28;20292;-88
2023/03/26 02:46:06;;;;;;;0.30;0.30;;;5.90;99.90;;;;;;5071296;28;20533;-88
2023/03/26 02:48:35;;;;;;;0.00;0.00;;;5.90;99.90;;;;;;5070704;28;20129;-89
2023/03/26 02:51:01;;;;;;;1.05;0.85;;;6.00;99.90;;;;;;5070967;28;20164;-89
2023/03/26 02:53:30;;;;;;;2.22;0.60;;;6.00;99.90;;;;;;5069716;28;20072;-89
2023/03/26 02:55:57;;;;;;;0.10;0.10;;;6.10;99.90;;;;;;5071053;28;20041;-89
2023/03/26 02:58:25;;;;;;;0.85;0.85;;;6.10;99.90;;;;;;5071339;28;20531;-89
2023/03/26 03:00:55;;;;;;;0.25;0.25;;;6.10;99.90;;;;;;5070938;28;20076;-89
2023/03/26 03:03:23;;;;;;;0.00;0.00;;;6.20;99.90;;;;;;5069744;28;20059;-89
2023/03/26 03:05:58;;;;;;;0.52;0.45;;;6.20;99.90;;;;;;5070308;28;20409;-88
2023/03/26 03:08:27;;;;;;;0.20;0.20;;;6.20;99.90;;;;;;5053860;28;20078;-89
2023/03/26 03:10:57;;;;;;;2.70;0.32;;;6.20;99.90;;;;;;5070142;28;20114;-89
2023/03/26 03:13:22;;;;;;;1.15;1.08;;;6.20;99.90;;;;;;5070010;28;20044;-89
2023/03/26 03:15:48;;;;;;;0.00;0.00;;;6.30;99.90;;;;;;5071686;28;20128;-89
2023/03/26 03:18:14;;;;;;;0.43;0.30;;;6.30;99.90;;;;;;5071582;28;20048;-89
2023/03/26 03:20:40;;;;;;;1.05;1.00;;;6.30;99.90;;;;;;5069669;28;20379;-88
2023/03/26 03:23:06;;;;;;;0.10;0.10;;;6.30;99.90;;;;;;5071758;28;20082;-89
2023/03/26 03:25:32;;;;;;;2.20;1.27;;;6.30;99.90;;;;;;5053368;28;20076;-89
2023/03/26 03:27:58;;;;;;;0.00;0.00;;;6.30;99.90;;;;;;5070213;28;20055;-88
2023/03/26 03:30:24;;;;;;;0.00;0.00;;;6.30;99.90;;;;;;5071668;28;20490;-89
2023/03/26 03:32:49;;;;;;;0.00;0.00;;;6.30;99.90;;;;;;5061883;28;20045;-89
2023/03/26 03:35:15;;;;;;;0.10;0.10;;;6.30;99.90;;;;;;5051222;28;20203;-89
2023/03/26 03:37:41;;;;;;;0.25;0.20;;;6.30;99.90;;;;;;5051075;28;20541;-89
2023/03/26 03:40:09;;;;;;;0.00;0.00;;;6.30;99.90;;;;;;5053304;28;20080;-89
2023/03/26 03:42:36;;;;;;;0.55;0.55;;;6.30;99.90;;;;;;5049820;28;20057;-89
2023/03/26 03:45:05;;;;;;;0.00;0.00;;;6.30;99.90;;;;;;5050779;28;20053;-89
2023/03/26 03:47:31;;;;;;;0.00;0.00;;;6.40;99.90;;;;;;5048977;28;20499;-89
2023/03/26 03:49:58;;;;;;;0.00;0.00;;;6.30;99.90;;;;;;5049449;28;20051;-89
2023/03/26 03:52:25;;;;;;;0.40;0.40;;;6.30;99.90;;;;;;5049071;28;20090;-88
2023/03/26 03:54:51;;;;;;;0.10;0.10;;;6.30;99.90;;;;;;5050320;28;20151;-88
2023/03/26 03:57:17;;;;;;;0.08;0.08;;;6.70;99.90;;;;;;5050743;28;20178;-89
2023/03/26 03:59:43;;;;;;;0.05;0.05;;;6.30;99.90;;;;;;5049252;28;20045;-89
2023/03/26 04:02:09;;;;;;;0.25;0.25;;;6.30;99.90;;;;;;5051093;28;20059;-89
2023/03/26 04:04:36;;;;;;;0.85;0.70;;;7.30;1.00;;;;;;5049606;28;20108;-89
2023/03/26 04:07:04;;;;;;;0.55;0.32;;;6.30;40.70;;;;;;5051134;28;20140;-89
2023/03/26 04:09:30;;;;;;;0.00;0.00;;;6.30;93.50;;;;;;5050737;28;20048;-89
2023/03/26 04:11:55;;;;;;;0.00;0.00;;;6.30;99.90;;;;;;5050992;28;20131;-89
2023/03/26 04:14:21;;;;;;;4.30;1.23;;;6.30;99.90;;;;;;5051159;28;20557;-89
2023/03/26 04:16:50;;;;;;;9.43;1.17;;;6.30;42.50;;;;;;5050844;28;20406;-89
2023/03/26 04:19:15;;;;;;;0.32;0.22;;;6.30;41.40;;;;;;5050997;28;20509;-89
2023/03/26 04:21:41;;;;;;;1.55;1.30;;;6.20;1.00;;;;;;5048845;28;20505;-88
2023/03/26 04:24:08;;;;;;;6.25;1.75;;;6.10;1.00;;;;;;5048230;28;20464;-89
2023/03/26 04:26:34;;;;;;;0.00;0.00;;;6.00;1.00;;;;;;5049681;28;20102;-88
2023/03/26 04:29:03;;;;;;;3.72;1.33;;;5.90;1.00;;;;;;5048598;28;20049;-89
2023/03/26 04:31:29;;;;;;;0.00;0.00;;;5.80;99.90;;;;;;5031800;28;20056;-89
2023/03/26 04:34:23;;;;;;;0.00;0.00;;;5.70;99.90;;;;;;5048817;28;20041;-89
2023/03/26 04:36:50;;;;;;;1.48;0.13;;;5.60;99.90;;;;;;5049887;28;20406;-89
2023/03/26 04:39:16;;;;;;;0.70;0.43;;;5.50;99.90;;;;;;5050516;28;20045;-89
2023/03/26 04:41:41;;;;;;;6.22;1.17;;;5.40;99.90;;;;;;5048824;28;20099;-88
2023/03/26 04:44:07;;;;;;;0.00;0.00;;;5.10;99.90;;;;;;5048992;28;20087;-89
2023/03/26 04:46:33;;;;;;;0.00;0.00;;;4.90;99.90;;;;;;5049456;28;20142;-89
2023/03/26 04:49:00;;;;;;;2.13;0.45;;;4.70;99.90;;;;;;5049368;28;20071;-89
2023/03/26 04:51:36;;;;;;;1.25;0.38;;;4.60;99.90;;;;;;5048874;28;20037;-89
2023/03/26 04:54:04;;;;;;;5.40;1.10;;;4.80;99.90;;;;;;5048724;28;20281;-89
2023/03/26 04:56:30;;;;;;;0.00;0.00;;;4.40;99.90;;;;;;5048770;28;20049;-89
2023/03/26 04:58:59;;;;;;;0.08;0.08;;;4.30;99.90;;;;;;5048759;28;20139;-88
2023/03/26 05:01:27;;;;;;;0.00;0.00;;;4.10;99.90;;;;;;5049838;28;20461;-88
2023/03/26 05:03:53;;;;;;;1.45;0.90;;;3.90;99.90;;;;;;5050031;28;20048;-88
2023/03/26 05:06:20;;;;;;;0.00;0.00;;;3.80;99.90;;;;;;5049682;28;20128;-89
2023/03/26 05:08:46;;;;;;;0.00;0.00;;;3.70;99.90;;;;;;5049875;28;20051;-89
2023/03/26 05:11:12;;;;;;;0.00;0.00;;;3.60;99.90;;;;;;5048971;28;20041;-89
2023/03/26 05:13:38;;;;;;;0.00;0.00;;;3.50;99.90;;;;;;5049843;28;20082;-88
2023/03/26 05:16:04;;;;;;;0.65;0.65;;;3.40;99.90;;;;;;5047912;28;20053;-89
2023/03/26 05:18:31;;;;;;;0.32;0.30;;;3.30;99.90;;;;;;5048578;28;20094;-88
2023/03/26 05:20:56;;;;;;;0.00;0.00;;;3.30;99.90;;;;;;5049909;28;20053;-88
2023/03/26 05:23:22;;;;;;;0.35;0.30;;;3.30;99.90;;;;;;5031326;28;20065;-88
2023/03/26 05:25:48;;;;;;;0.10;0.10;;;3.40;99.90;;;;;;5049946;28;20055;-89
2023/03/26 05:28:14;;;;;;;0.00;0.00;;;3.40;99.90;;;;;;5031685;28;20134;-89
2023/03/26 05:30:42;;;;;;;0.10;0.10;;;3.50;99.90;;;;;;5048347;28;20502;-88
2023/03/26 05:33:08;;;;;;;0.00;0.00;;;3.60;99.90;;;;;;5048032;28;20422;-89
2023/03/26 05:35:33;;;;;;;1.08;0.75;;;3.70;99.90;;;;;;5047589;28;20051;-88
2023/03/26 05:37:59;;;;;;;0.45;0.45;;;3.90;99.90;;;;;;5049806;28;20057;-88
2023/03/26 05:40:25;;;;;;;0.00;0.00;;;4.00;99.90;;;;;;5048520;28;20049;-88
2023/03/26 05:42:51;;;;;;;3.15;1.17;;;4.20;99.90;;;;;;5047531;28;20099;-88
2023/03/26 05:45:16;;;;;;;0.00;0.00;;;4.20;99.90;;;;;;5047904;28;20053;-88
2023/03/26 05:47:42;;;;;;;1.98;1.02;;;4.40;99.90;;;;;;5049666;28;20057;-88
2023/03/26 05:50:09;;;;;;;0.03;0.03;;;4.40;99.90;;;;;;5048125;28;20052;-89
2023/03/26 05:52:35;;;;;;;0.43;0.43;;;4.50;99.90;;;;;;5049780;28;20122;-88
2023/03/26 05:55:02;;;;;;;1.85;0.57;;;4.60;99.90;;;;;;5046748;28;20049;-88
2023/03/26 05:57:31;;;;;;;0.00;0.00;;;4.70;99.90;;;;;;5048498;28;20049;-88
2023/03/26 05:59:57;;;;;;;0.35;0.35;;;4.80;99.90;;;;;;5049307;28;20048;-89
2023/03/26 06:02:22;;;;;;;0.88;0.77;;;4.90;99.90;;;;;;5049169;28;20045;-89
2023/03/26 06:04:49;;;;;;;4.03;2.25;;;5.00;99.90;;;;;;5048686;28;20140;-89
2023/03/26 06:07:16;;;;;;;0.55;0.50;;;5.00;99.90;;;;;;5049136;28;20049;-89
2023/03/26 06:09:42;;;;;;;0.43;0.43;;;5.10;99.90;;;;;;5047929;28;20555;-89
2023/03/26 06:12:09;;;;;;;1.55;1.20;;;5.20;99.90;;;;;;5047779;28;20120;-88
2023/03/26 06:14:36;;;;;;;0.00;0.00;;;5.30;99.90;;;;;;5046212;28;20048;-88
2023/03/26 06:17:02;;;;;;;0.00;0.00;;;5.40;99.90;;;;;;5047928;28;20055;-89
2023/03/26 06:19:27;;;;;;;2.60;0.95;;;5.50;99.90;;;;;;5046564;28;20323;-88
2023/03/26 06:21:53;;;;;;;0.00;0.00;;;5.60;99.90;;;;;;5048067;28;20525;-89
2023/03/26 06:24:19;;;;;;;0.15;0.10;;;5.70;99.90;;;;;;5049735;28;20083;-89
2023/03/26 06:26:46;;;;;;;0.00;0.00;;;5.80;99.90;;;;;;5050515;28;20134;-88
2023/03/26 06:29:13;;;;;;;0.20;0.20;;;5.90;46.60;;;;;;5051378;28;20052;-89
2023/03/26 06:31:40;;;;;;;0.25;0.22;;;6.00;1.00;;;;;;5051691;28;20049;-89
2023/03/26 06:34:06;;;;;;;0.28;0.20;;;6.80;99.90;;;;;;5050006;28;20045;-89
2023/03/26 06:36:31;;;;;;;0.00;0.00;;;6.30;1.00;;;;;;5033205;28;20057;-89
2023/03/26 06:38:57;;;;;;;1.02;0.90;;;7.50;99.90;;;;;;5051021;28;20053;-88
2023/03/26 06:41:23;;;;;;;1.55;1.00;;;6.50;1.00;;;;;;5051005;28;20499;-89
2023/03/26 06:43:49;;;;;;;0.00;0.00;;;6.60;99.90;;;;;;5049257;28;20060;-89
2023/03/26 06:46:15;;;;;;;0.10;0.10;;;6.70;99.90;;;;;;5032958;28;20055;-88
2023/03/26 06:48:41;;;;;;;1.65;1.55;;;6.70;99.90;;;;;;5050027;28;20053;-88
2023/03/26 06:51:08;;;;;;;1.17;1.00;;;6.70;96.60;;;;;;5049102;28;20048;-88
2023/03/26 06:53:34;;;;;;;0.28;0.28;;;6.70;1.00;;;;;;5049977;28;20045;-88
2023/03/26 06:56:00;;;;;;;1.45;0.75;;;8.10;1.00;;;;;;5051815;28;20048;-88
2023/03/26 06:58:25;;;;;;;1.98;1.35;;;6.80;1.00;;;;;;5050489;28;20051;-89
2023/03/26 07:00:55;;;;;;;0.00;0.00;;;6.90;1.00;;;;;;5050908;28;20459;-88
2023/03/26 07:03:21;;;;;;;0.40;0.40;;;7.00;99.90;;;;;;5048639;28;20048;-88
2023/03/26 07:05:47;;;;;;;0.47;0.30;;;7.10;99.90;;;;;;5050468;28;20044;-88
2023/03/26 07:08:14;;;;;;;0.00;0.00;;;7.10;99.90;;;;;;5049309;28;20124;-88
2023/03/26 07:10:40;;;;;;;0.35;0.15;;;7.10;99.90;;;;;;5050432;28;20115;-88
2023/03/26 07:13:06;;;;;;;0.85;0.68;;;7.10;99.90;;;;;;5050777;28;20575;-88
2023/03/26 07:15:31;;;;;;;0.05;0.05;;;7.10;1.00;;;;;;5058664;28;20076;-88
2023/03/26 07:17:57;;;;;;;0.35;0.35;;;7.10;1.00;;;;;;5056620;28;20398;-89
2023/03/26 07:20:23;;;;;;;0.00;0.00;;;7.00;1.00;;;;;;5050413;28;20495;-89
2023/03/26 07:22:49;;;;;;;0.17;0.17;;;7.00;1.00;;;;;;5050571;28;20470;-89
2023/03/26 07:25:17;;;;;;;0.40;0.15;;;6.90;1.00;;;;;;5051422;28;20071;-89
2023/03/26 07:28:11;;;;;;;0.00;0.00;;;6.90;1.00;;;;;;5050161;28;20049;-89
2023/03/26 07:30:49;;;;;;;0.08;0.08;;;7.00;1.00;;;;;;5033270;28;20049;-89
2023/03/26 07:33:28;;;;;;;0.22;0.20;;;7.10;1.00;;;;;;5033742;28;20432;-89
2023/03/26 07:36:26;;;;;;;0.00;0.00;;;7.20;1.00;;;;;;5049479;28;20045;-89
2023/03/26 07:39:21;;;;;;;0.30;0.22;;;7.40;1.00;;;;;;5049036;28;20291;-89
2023/03/26 07:42:02;;;;;;;0.10;0.10;;;7.60;99.90;;;;;;5046930;28;20112;-88
2023/03/26 07:45:01;;;;;;;0.28;0.28;;;7.60;99.90;;;;;;5044612;28;20391;-89
2023/03/26 07:47:32;;;;;;;6.20;1.45;;;7.70;99.90;;;;;;5044781;28;20123;-89
2023/03/26 07:50:16;;;;;;;0.00;0.00;;;7.60;99.90;;;;;;5044400;28;20470;-88
2023/03/26 07:52:45;;;;;;;1.27;0.85;;;7.60;99.90;;;;;;5044348;28;20510;-88
2023/03/26 07:55:13;;;;;;;1.00;0.90;;;7.90;99.90;;;;;;5045236;28;20037;-89
2023/03/26 07:57:54;;;;;;;3.10;2.17;;;7.70;99.90;;;;;;5044234;28;20049;-89
2023/03/26 08:00:25;;;;;;;0.25;0.25;;;7.80;99.90;;;;;;5044223;28;20057;-89
2023/03/26 08:03:17;;;;;;;0.03;0.00;;;7.90;99.90;;;;;;5046029;28;20063;-89
2023/03/26 08:05:59;;;;;;;0.15;0.15;;;7.90;99.90;;;;;;5045648;28;20456;-89
2023/03/26 08:08:52;;;;;;;1.30;0.57;;;8.00;99.90;;;;;;5046016;28;20049;-89
2023/03/26 08:11:39;;;;;;;0.10;0.05;;;8.10;99.90;;;;;;5043971;28;20048;-89
2023/03/26 08:14:23;;;;;;;1.38;1.27;;;8.10;99.90;;;;;;5044217;28;20059;-89
2023/03/26 08:17:10;;;;;;;6.43;0.65;;;7.90;99.90;;;;;;5044676;28;20079;-89
2023/03/26 08:19:48;;;;;;;0.38;0.38;;;8.10;99.90;;;;;;5045073;28;20057;-89
2023/03/26 08:22:32;;;;;;;0.00;0.00;;;9.20;99.90;;;;;;5043926;28;20060;-88
2023/03/26 08:25:16;;;;;;;0.63;0.47;;;8.30;99.90;;;;;;5065720;28;20037;-89
2023/03/26 08:28:03;;;;;;;9.73;1.20;;;9.00;99.90;;;;;;5047684;28;20052;-89
2023/03/26 08:30:30;;;;;;;3.42;1.00;;;8.60;99.90;;;;;;5066159;28;20536;-89
2023/03/26 08:32:59;;;;;;;0.00;0.00;;;8.60;99.90;;;;;;5047716;28;20049;-89
2023/03/26 08:35:26;;;;;;;0.00;0.00;;;8.60;99.90;;;;;;5052515;28;20048;-89
2023/03/26 08:37:52;;;;;;;0.65;0.45;;;8.60;99.90;;;;;;5045058;28;20037;-88
2023/03/26 08:40:43;;;;;;;0.00;0.00;;;8.70;99.90;;;;;;5027587;28;20072;-89
2023/03/26 08:43:28;;;;;;;0.00;0.00;;;8.80;99.90;;;;;;5041442;28;20460;-89
2023/03/26 08:46:26;;;;;;;0.10;0.10;;;9.00;99.90;;;;;;5043952;28;20106;-89
2023/03/26 08:48:58;;;;;;;10.85;1.38;;;9.00;99.90;;;;;;5043987;28;20052;-89
2023/03/26 08:51:48;;;;;;;0.75;0.75;;;9.60;99.70;;;;;;5043071;28;20049;-89
2023/03/26 08:54:27;;;;;;;0.47;0.28;;;8.80;98.20;;;;;;5043825;28;20056;-89
2023/03/26 08:57:08;;;;;;;0.25;0.20;;;8.80;99.90;;;;;;5043358;28;20517;-88
2023/03/26 08:59:43;;;;;;;2.17;0.90;;;9.00;96.60;;;;;;5043476;28;20060;-89
2023/03/26 09:02:34;;;;;;;0.32;0.20;;;9.10;98.40;;;;;;5045265;28;20051;-89
2023/03/26 09:05:35;;;;;;;1.65;0.25;;;9.20;99.60;;;;;;5040089;28;20050;-89
2023/03/26 09:08:25;;;;;;;0.22;0.22;;;9.00;78.60;;;;;;5042612;28;20037;-89
2023/03/26 09:11:15;;;;;;;0.00;0.00;;;8.90;91.10;;;;;;5044997;28;20045;-89
2023/03/26 09:13:49;;;;;;;0.25;0.17;;;9.10;99.90;;;;;;5045055;28;20051;-89
2023/03/26 09:17:05;;;;;;;1.17;0.38;;;9.50;99.20;;;;;;5043186;28;20051;-89
2023/03/26 09:19:58;;;;;;;0.00;0.00;;;9.80;89.60;;;;;;5034295;28;20127;-89
2023/03/26 09:22:42;;;;;;;0.55;0.55;;;9.70;85.30;;;;;;5045574;28;20551;-89
2023/03/26 09:25:24;;;;;;;0.25;0.15;;;9.60;78.50;;;;;;5043680;28;20560;-89
2023/03/26 09:28:27;;;;;;;2.20;0.90;;;9.60;99.90;;;;;;5043735;28;20053;-89
2023/03/26 09:31:09;;;;;;;0.10;0.10;;;10.00;99.90;;;;;;5044658;28;20210;-89
2023/03/26 09:33:59;;;;;;;0.85;0.45;;;10.40;99.90;;;;;;5044298;28;20418;-89
2023/03/26 09:36:44;;;;;;;0.28;0.10;;;10.10;97.10;;;;;;5044524;28;20151;-89
2023/03/26 09:39:41;;;;;;;1.77;1.08;;;9.90;93.30;;;;;;5043156;28;20057;-89
2023/03/26 09:42:06;;;;;;;0.38;0.35;;;9.60;40.20;;;;;;5044320;28;20049;-89
2023/03/26 09:45:09;;;;;;;0.73;0.43;;;9.40;66.50;;;;;;5044091;28;20061;-89
2023/03/26 09:48:17;;;;;;;0.00;0.00;;;9.40;48.20;;;;;;5044709;28;20316;-88
2023/03/26 09:50:51;;;;;;;0.52;0.52;;;9.50;69.50;;;;;;5035756;28;20099;-89
2023/03/26 09:53:39;;;;;;;0.00;0.00;;;9.60;52.00;;;;;;5044553;28;20410;-88
2023/03/26 09:56:14;;;;;;;0.47;0.35;;;10.20;56.10;;;;;;5046906;28;20057;-89
2023/03/26 09:59:15;;;;;;;0.00;0.00;;;10.80;48.50;;;;;;5048339;28;20087;-88
2023/03/26 10:02:26;;;;;;;0.03;0.03;;;11.00;50.40;;;;;;5031689;28;20056;-88
2023/03/26 10:05:25;;;;;;;0.60;0.47;;;10.90;32.00;;;;;;5049601;28;20049;-88
2023/03/26 10:08:15;;;;;;;0.20;0.17;;;10.50;31.80;;;;;;5047553;28;20474;-88
2023/03/26 10:10:58;;;;;;;0.00;0.00;;;10.30;32.50;;;;;;5045079;28;20146;-88
2023/03/26 10:13:39;;;;;;;0.00;0.00;;;9.80;24.20;;;;;;5046080;28;20061;-89
2023/03/26 10:16:31;;;;;;;1.25;0.57;;;9.70;25.20;;;;;;5044721;28;20063;-89
2023/03/26 10:19:10;;;;;;;0.28;0.20;;;9.60;28.90;;;;;;5027649;28;20510;-89
2023/03/26 10:21:36;;;;;;;0.10;0.10;;;9.50;27.50;;;;;;5044470;28;20063;-89
2023/03/26 10:24:17;;;;;;;0.28;0.28;;;9.60;53.60;;;;;;5045534;28;20487;-89
2023/03/26 10:27:03;;;;;;;0.00;0.00;;;9.80;43.50;;;;;;5044873;28;20096;-89
2023/03/26 10:29:40;;;;;;;;;;;10.00;45.70;;;;;;5045111;28;20124;-89
2023/03/26 10:32:44;;;;;;;0.00;0.00;;;10.70;61.80;;;;;;5045731;28;19925;-89
2023/03/26 10:35:43;;;;;;;2.13;0.95;;;10.30;33.00;;;;;;5033824;28;20477;-89
2023/03/26 10:38:40;;;;;;;9.32;2.92;;;9.20;52.70;;;;;;5044351;28;20052;-88
2023/03/26 10:41:34;;;;;;;1.70;0.25;;;9.20;43.80;;;;;;5045926;28;20053;-88
2023/03/26 10:44:12;;;;;;;0.10;0.08;;;9.20;46.00;;;;;;5044226;28;20675;-89
2023/03/26 10:46:57;;;;;;;0.10;0.10;;;9.30;63.00;;;;;;5046085;28;20563;-89
2023/03/26 10:49:32;;;;;;;1.40;1.20;;;9.20;25.40;;;;;;5044774;28;20045;-88
2023/03/26 10:52:03;;;;;;;0.75;0.35;;;9.30;50.60;;;;;;5046353;28;20055;-89
2023/03/26 10:54:55;;;;;;;1.00;0.43;;;9.20;40.80;;;;;;5044403;28;20068;-88
2023/03/26 10:57:38;;;;;;;0.10;0.08;;;9.30;40.50;;;;;;5043303;28;20057;-89
2023/03/26 11:00:24;;;;;;;16.45;2.72;;;9.30;33.10;;;;;;5063594;28;20044;-89
2023/03/26 11:02:53;;;;;;;;;;;9.30;19.80;;;;;;5024611;28;20056;-88
2023/03/26 11:05:45;;;;;;;1.80;0.70;;;9.20;13.10;;;;;;5024014;28;20225;-89
2023/03/26 11:08:24;;;;;;;0.35;0.35;;;9.40;38.90;;;;;;5022259;28;20574;-88
2023/03/26 11:10:59;;;;;;;0.00;0.00;;;9.40;10.00;;;;;;5024422;28;20499;-89
2023/03/26 11:13:34;;;;;;;0.22;0.22;;;9.30;18.80;;;;;;5025992;28;20099;-89
2023/03/26 11:16:09;;;;;;;0.20;0.15;;;9.20;16.40;;;;;;5038347;28;20104;-88
2023/03/26 11:18:43;;;;;;;0.10;0.10;;;9.30;9.10;;;;;;5044510;28;20053;-90
2023/03/26 11:21:43;;;;;;;3.53;1.08;;;10.20;2.10;;;;;;5070887;28;20399;-88
2023/03/26 11:24:47;;;;;;;0.00;0.00;;;9.00;1.00;;;;;;5069048;28;20049;-89
2023/03/26 11:27:42;;;;;;;0.75;0.70;;;9.10;1.00;;;;;;5067582;28;20467;-88
2023/03/26 11:30:16;;;;;;;0.25;0.20;;;9.10;1.00;;;;;;5065735;28;20131;-89
2023/03/26 11:32:47;;;;;;;0.30;0.30;;;9.20;1.00;;;;;;5065094;28;20052;-88
2023/03/26 11:35:31;;;;;;;0.00;0.00;;;9.20;7.50;;;;;;5065571;28;20127;-88
2023/03/26 11:38:12;;;;;;;0.25;0.25;;;9.30;1.40;;;;;;5056184;28;20415;-89
2023/03/26 11:40:47;;;;;;;0.13;0.13;;;9.30;7.30;;;;;;5043004;28;20059;-88
2023/03/26 11:43:16;;;;;;;3.30;1.30;;;9.40;25.50;;;;;;5042321;28;20495;-88
2023/03/26 11:45:45;;;;;;;0.10;0.10;;;9.30;1.00;;;;;;5044658;28;20052;-88
2023/03/26 11:48:30;;;;;;;1.55;0.65;;;9.10;1.00;;;;;;5041156;28;20056;-88
2023/03/26 11:51:04;;;;;;;0.75;0.75;;;9.10;1.00;;;;;;5022884;28;20085;-88
2023/03/26 11:53:38;;;;;;;1.65;1.02;;;9.20;1.00;;;;;;5022847;28;20053;-88
2023/03/26 11:56:40;;;;;;;0.70;0.70;;;9.50;1.00;;;;;;5023457;28;20049;-88
2023/03/26 11:59:34;;;;;;;1.35;0.63;;;9.80;1.00;;;;;;5021480;28;20061;-89
2023/03/26 12:02:12;;;;;;;0.22;0.20;;;10.20;9.80;;;;;;5023417;28;20421;-88
2023/03/26 12:04:40;;;;;;;0.05;0.05;;;10.30;1.00;;;;;;5023129;28;20050;-88
2023/03/26 12:07:19;;;;;;;0.00;0.00;;;10.20;1.00;;;;;;5023473;28;20539;-88
2023/03/26 12:10:22;;;;;;;1.02;0.52;;;10.30;1.00;;;;;;5023136;28;20530;-88
2023/03/26 12:12:48;;;;;;;0.00;0.00;;;10.60;1.00;;;;;;5023439;28;20069;-88
2023/03/26 12:15:15;;;;;;;0.70;0.38;;;11.10;1.00;;;;;;5024382;28;20111;-88
2023/03/26 12:17:41;;;;;;;1.55;0.55;;;11.10;1.00;;;;;;5024855;28;20048;-88
2023/03/26 12:20:24;;;;;;;0.55;0.52;;;11.20;1.00;;;;;;5034659;28;20144;-88
2023/03/26 12:22:52;;;;;;;1.35;0.90;;;10.70;1.00;;;;;;5041635;28;20120;-87
2023/03/26 12:25:20;;;;;;;0.93;0.50;;;10.20;1.00;;;;;;5041787;28;20108;-88
2023/03/26 12:28:01;;;;;;;0.60;0.55;;;9.50;1.00;;;;;;5043590;28;20128;-88
2023/03/26 12:30:36;;;;;;;0.00;0.00;;;9.60;1.00;;;;;;5043546;28;20052;-88
2023/03/26 12:33:24;;;;;;;0.50;0.50;;;9.70;1.00;;;;;;5043571;28;20083;-88
2023/03/26 12:35:51;;;;;;;0.25;0.25;;;9.50;1.00;;;;;;5042386;28;20115;-88
2023/03/26 12:38:37;;;;;;;0.00;0.00;;;9.70;1.00;;;;;;5047750;28;20086;-88
2023/03/26 12:41:16;;;;;;;0.00;0.00;;;9.50;1.00;;;;;;5064136;28;20049;-88
2023/03/26 12:43:48;;;;;;;0.05;0.05;;;9.30;1.00;;;;;;5062692;28;20135;-88
2023/03/26 12:46:32;;;;;;;0.20;0.20;;;9.50;1.00;;;;;;5063706;28;20056;-88
2023/03/26 12:49:04;;;;;;;1.75;0.65;;;10.20;1.00;;;;;;5061895;28;20080;-88
2023/03/26 12:51:48;;;;;;;0.00;0.00;;;10.90;1.00;;;;;;5062320;28;20463;-89
2023/03/26 12:54:47;;;;;;;0.08;0.00;;;11.50;1.00;;;;;;5062346;28;20113;-88
2023/03/26 12:57:24;;;;;;;4.53;0.90;;;11.90;1.00;;;;;;5063810;28;20134;-88
2023/03/26 13:00:11;;;;;;;0.47;0.32;;;11.40;1.00;;;;;;5061601;28;20538;-88
2023/03/26 13:02:57;;;;;;;3.20;1.35;;;10.60;1.00;;;;;;5044836;28;20056;-88
2023/03/26 13:05:41;;;;;;;0.00;0.00;;;10.20;1.00;;;;;;5063648;28;20113;-88
2023/03/26 13:08:41;;;;;;;0.00;0.00;;;9.80;1.00;;;;;;5060931;28;20563;-88
2023/03/26 13:11:25;;;;;;;5.90;1.92;;;9.70;1.00;;;;;;5059114;28;20527;-88
2023/03/26 13:14:06;;;;;;;0.00;0.00;;;9.50;1.00;;;;;;5061964;28;20422;-88
2023/03/26 13:16:40;;;;;;;0.93;0.82;;;9.60;1.00;;;;;;5062380;28;20048;-88
2023/03/26 13:19:31;;;;;;;0.00;0.00;;;9.60;1.00;;;;;;5061467;28;20502;-88
2023/03/26 13:22:15;;;;;;;0.45;0.45;;;9.70;1.00;;;;;;5061166;28;20048;-87
2023/03/26 13:24:47;;;;;;;1.35;0.73;;;9.70;1.00;;;;;;5063314;28;20076;-88
2023/03/26 13:27:50;;;;;;;0.00;0.00;;;9.70;1.00;;;;;;5061147;28;20056;-88
2023/03/26 13:30:30;;;;;;;2.47;0.75;;;9.50;1.00;;;;;;5056656;28;20040;-88
2023/03/26 13:33:38;;;;;;;0.00;0.00;;;10.30;1.00;;;;;;5043252;28;20139;-87
2023/03/26 13:36:19;;;;;;;0.70;0.70;;;9.20;1.00;;;;;;5042911;28;20685;-88
2023/03/26 13:39:03;;;;;;;0.00;0.00;;;9.20;1.00;;;;;;5046993;28;20052;-88
2023/03/26 13:41:47;;;;;;;2.55;0.52;;;9.40;1.00;;;;;;5047389;28;20056;-88